Time;durP1;ratioP1;P1;durP2;ratioP2;P2;SDS_P1;SDS_P2;PMS_P1;PMS_P2;Temp;Humidity;BMP_temperature;BMP_pressure;BME280_temperature;BME280_humidity;BME280_pressure;Samples;Min_cycle;Max_cycle;Signal;HPM_P1;HPM_P2
2022/09/14 00:01:24;;;;;;;1.17;0.80;;;;;;;;;;5091870;28;20465;-76
2022/09/14 00:03:57;;;;;;;1.87;1.20;;;;;;;;;;5092024;28;20036;-76
2022/09/14 00:06:24;;;;;;;1.90;1.03;;;;;;;;;;5090160;28;20124;-76
2022/09/14 00:08:54;;;;;;;2.00;1.10;;;;;;;;;;5087622;28;20348;-76
2022/09/14 00:11:23;;;;;;;1.07;0.80;;;;;;;;;;5086228;28;20024;-77
2022/09/14 00:13:50;;;;;;;1.10;1.00;;;;;;;;;;5087022;28;20028;-76
2022/09/14 00:16:19;;;;;;;2.07;1.00;;;;;;;;;;5087514;28;20028;-76
2022/09/14 00:18:50;;;;;;;1.50;1.10;;;;;;;;;;5092238;28;20032;-76
2022/09/14 00:21:17;;;;;;;0.67;0.60;;;;;;;;;;5092374;28;20099;-76
2022/09/14 00:23:47;;;;;;;1.33;0.80;;;;;;;;;;5091179;28;20450;-77
2022/09/14 00:26:19;;;;;;;4.80;1.10;;;;;;;;;;5091724;28;20103;-76
2022/09/14 00:28:48;;;;;;;0.53;0.47;;;;;;;;;;5090856;28;20747;-76
2022/09/14 00:31:15;;;;;;;2.10;1.23;;;;;;;;;;5087319;28;20031;-76
2022/09/14 00:33:43;;;;;;;3.23;1.13;;;;;;;;;;5087313;28;20028;-76
2022/09/14 00:36:23;;;;;;;0.93;0.80;;;;;;;;;;5087339;28;20505;-77
2022/09/14 00:38:50;;;;;;;3.33;1.33;;;;;;;;;;5088542;28;20064;-76
2022/09/14 00:41:18;;;;;;;1.77;1.40;;;;;;;;;;5092236;28;20028;-77
2022/09/14 00:43:52;;;;;;;2.03;1.23;;;;;;;;;;5092104;28;20034;-76
2022/09/14 00:46:19;;;;;;;2.63;1.67;;;;;;;;;;5092313;28;20031;-76
2022/09/14 00:48:45;;;;;;;3.00;1.70;;;;;;;;;;5092124;28;20028;-77
2022/09/14 00:51:12;;;;;;;3.30;1.40;;;;;;;;;;5090297;28;20035;-76
2022/09/14 00:53:39;;;;;;;2.00;1.10;;;;;;;;;;5086868;28;20025;-76
2022/09/14 00:56:06;;;;;;;2.10;1.47;;;;;;;;;;5087148;28;20074;-76
2022/09/14 00:58:32;;;;;;;5.20;1.97;;;;;;;;;;5087101;28;20024;-77
2022/09/14 01:01:01;;;;;;;2.97;1.77;;;;;;;;;;5088099;28;20024;-77
2022/09/14 01:03:28;;;;;;;2.93;2.17;;;;;;;;;;5091980;28;20032;-77
2022/09/14 01:06:16;;;;;;;3.63;2.80;;;;;;;;;;5091992;28;20146;-77
2022/09/14 01:08:50;;;;;;;2.80;2.00;;;;;;;;;;5092110;28;20020;-77
2022/09/14 01:11:26;;;;;;;4.90;2.17;;;;;;;;;;5091861;28;20020;-77
2022/09/14 01:14:02;;;;;;;2.00;1.50;;;;;;;;;;5089394;28;20050;-77
2022/09/14 01:16:31;;;;;;;2.00;1.37;;;;;;;;;;5086802;28;20024;-77
2022/09/14 01:18:59;;;;;;;5.33;1.60;;;;;;;;;;5086790;28;20071;-76
2022/09/14 01:21:29;;;;;;;2.13;0.83;;;;;;;;;;5086894;28;20032;-76
2022/09/14 01:24:11;;;;;;;1.67;1.07;;;;;;;;;;5091807;28;20114;-76
2022/09/14 01:26:44;;;;;;;1.13;0.70;;;;;;;;;;5095400;28;20065;-76
2022/09/14 01:29:29;;;;;;;0.93;0.83;;;;;;;;;;5095642;28;20024;-78
2022/09/14 01:32:05;;;;;;;1.20;0.80;;;;;;;;;;5095643;28;20428;-76
2022/09/14 01:34:40;;;;;;;0.63;0.57;;;;;;;;;;5095447;28;20032;-76
2022/09/14 01:37:13;;;;;;;0.20;0.20;;;;;;;;;;5091036;28;20094;-77
2022/09/14 01:39:44;;;;;;;2.00;0.50;;;;;;;;;;5090360;28;20028;-76
2022/09/14 01:42:13;;;;;;;0.63;0.40;;;;;;;;;;5090157;28;20024;-77
2022/09/14 01:44:42;;;;;;;0.70;0.57;;;;;;;;;;5090280;28;20039;-78
2022/09/14 01:47:15;;;;;;;3.80;0.40;;;;;;;;;;5094225;28;20027;-78
2022/09/14 01:49:50;;;;;;;0.33;0.33;;;;;;;;;;5095373;28;20386;-77
2022/09/14 01:52:20;;;;;;;0.87;0.50;;;;;;;;;;5095072;28;20020;-77
2022/09/14 01:54:52;;;;;;;1.93;0.80;;;;;;;;;;5095239;28;20028;-75
2022/09/14 01:57:28;;;;;;;1.47;0.57;;;;;;;;;;5094457;28;20020;-78
2022/09/14 01:59:56;;;;;;;0.50;0.50;;;;;;;;;;5089512;28;20086;-75
2022/09/14 02:02:30;;;;;;;2.40;0.97;;;;;;;;;;5089089;28;20035;-76
2022/09/14 02:05:06;;;;;;;1.37;0.90;;;;;;;;;;5089923;28;20028;-76
2022/09/14 02:07:34;;;;;;;1.07;0.73;;;;;;;;;;5090000;28;20348;-77
2022/09/14 02:10:02;;;;;;;1.00;0.63;;;;;;;;;;5094735;28;20533;-76
2022/09/14 02:12:29;;;;;;;3.67;1.47;;;;;;;;;;5094004;28;20478;-77
2022/09/14 02:14:56;;;;;;;0.93;0.70;;;;;;;;;;5094870;28;20016;-80
2022/09/14 02:17:22;;;;;;;1.43;0.87;;;;;;;;;;5078045;28;20031;-79
2022/09/14 02:19:54;;;;;;;1.77;1.00;;;;;;;;;;5073435;28;20035;-79
2022/09/14 02:22:21;;;;;;;1.30;0.80;;;;;;;;;;5069055;28;20081;-77
2022/09/14 02:24:48;;;;;;;1.20;0.90;;;;;;;;;;5069380;28;20407;-78
2022/09/14 02:27:14;;;;;;;1.77;0.70;;;;;;;;;;5067776;28;20723;-79
2022/09/14 02:29:41;;;;;;;1.90;0.90;;;;;;;;;;5074683;28;20058;-80
2022/09/14 02:32:11;;;;;;;1.33;0.83;;;;;;;;;;5093707;28;20024;-77
2022/09/14 02:34:56;;;;;;;4.00;1.53;;;;;;;;;;5093692;28;20176;-75
2022/09/14 02:37:52;;;;;;;0.82;0.60;;;;;;;;;;5094581;28;20023;-77
2022/09/14 02:40:21;;;;;;;0.93;0.77;;;;;;;;;;5022617;28;20521;-76
2022/09/14 02:43:15;;;;;;;1.17;0.50;;;;;;;;;;5091006;28;20012;-76
2022/09/14 02:45:44;;;;;;;4.50;0.80;;;;;;;;;;5088650;28;20028;-76
2022/09/14 02:48:10;;;;;;;2.97;1.07;;;;;;;;;;5088912;28;20387;-76
2022/09/14 02:50:44;;;;;;;0.53;0.50;;;;;;;;;;5088891;28;20020;-77
2022/09/14 02:53:14;;;;;;;2.38;0.50;;;;;;;;;;5091556;28;20375;-76
2022/09/14 02:56:07;;;;;;;0.53;0.50;;;;;;;;;;5093561;28;20427;-76
2022/09/14 02:58:38;;;;;;;1.73;0.80;;;;;;;;;;5092156;28;20390;-76
2022/09/14 03:01:06;;;;;;;0.40;0.40;;;;;;;;;;5093500;28;20032;-77
2022/09/14 03:03:33;;;;;;;4.10;1.00;;;;;;;;;;5093910;28;20027;-76
2022/09/14 03:06:00;;;;;;;0.63;0.60;;;;;;;;;;5089162;28;20496;-78
2022/09/14 03:08:27;;;;;;;1.57;0.90;;;;;;;;;;5088632;28;20398;-77
2022/09/14 03:10:54;;;;;;;0.93;0.70;;;;;;;;;;5088503;28;20115;-76
2022/09/14 03:13:21;;;;;;;0.43;0.40;;;;;;;;;;5088398;28;20020;-76
2022/09/14 03:15:48;;;;;;;0.40;0.33;;;;;;;;;;5091390;28;20129;-76
2022/09/14 03:18:14;;;;;;;1.33;0.80;;;;;;;;;;5093146;28;20024;-76
2022/09/14 03:20:41;;;;;;;0.60;0.53;;;;;;;;;;5093710;28;20020;-78
2022/09/14 03:23:09;;;;;;;2.23;1.20;;;;;;;;;;5093440;28;20066;-78
2022/09/14 03:25:37;;;;;;;1.13;0.60;;;;;;;;;;5093304;28;20458;-76
2022/09/14 03:28:04;;;;;;;0.43;0.40;;;;;;;;;;5089513;28;20035;-76
2022/09/14 03:30:31;;;;;;;1.83;0.83;;;;;;;;;;5088217;28;20089;-76
2022/09/14 03:32:58;;;;;;;2.03;0.90;;;;;;;;;;5087769;28;20336;-77
2022/09/14 03:35:25;;;;;;;2.73;1.07;;;;;;;;;;5087129;28;20032;-77
2022/09/14 03:37:52;;;;;;;0.50;0.50;;;;;;;;;;5090844;28;20028;-77
2022/09/14 03:40:18;;;;;;;1.10;0.90;;;;;;;;;;5093144;28;20021;-77
2022/09/14 03:42:47;;;;;;;1.53;0.70;;;;;;;;;;5093267;28;20016;-76
2022/09/14 03:45:14;;;;;;;0.93;0.60;;;;;;;;;;5092516;28;20028;-77
2022/09/14 03:47:42;;;;;;;0.93;0.63;;;;;;;;;;5092567;28;20024;-77
2022/09/14 03:50:10;;;;;;;0.63;0.50;;;;;;;;;;5089693;28;20094;-77
2022/09/14 03:52:37;;;;;;;0.73;0.53;;;;;;;;;;5087749;28;20052;-76
2022/09/14 03:55:05;;;;;;;0.97;0.70;;;;;;;;;;5087037;28;20478;-77
2022/09/14 03:57:32;;;;;;;1.13;0.60;;;;;;;;;;5080209;28;20432;-76
2022/09/14 03:59:59;;;;;;;0.60;0.53;;;;;;;;;;5090345;28;20028;-76
2022/09/14 04:02:28;;;;;;;1.37;0.87;;;;;;;;;;5092843;28;20024;-76
2022/09/14 04:04:54;;;;;;;0.63;0.40;;;;;;;;;;5092440;28;20028;-77
2022/09/14 04:07:21;;;;;;;1.77;0.70;;;;;;;;;;5092419;28;20035;-77
2022/09/14 04:09:48;;;;;;;1.33;1.13;;;;;;;;;;5092608;28;20081;-77
2022/09/14 04:12:14;;;;;;;1.40;0.80;;;;;;;;;;5089682;28;20031;-77
2022/09/14 04:14:41;;;;;;;1.90;1.23;;;;;;;;;;5087570;28;20107;-77
2022/09/14 04:17:08;;;;;;;0.80;0.77;;;;;;;;;;5087328;28;20070;-77
2022/09/14 04:19:36;;;;;;;0.50;0.50;;;;;;;;;;5087357;28;20024;-78
2022/09/14 04:22:04;;;;;;;4.40;1.17;;;;;;;;;;5088537;28;20039;-77
2022/09/14 04:24:30;;;;;;;1.00;0.60;;;;;;;;;;5092451;28;20035;-77
2022/09/14 04:26:57;;;;;;;1.00;0.67;;;;;;;;;;5092163;28;20024;-78
2022/09/14 04:29:29;;;;;;;1.70;0.63;;;;;;;;;;5090252;28;20421;-76
2022/09/14 04:31:56;;;;;;;4.03;1.40;;;;;;;;;;5092124;28;20028;-74
2022/09/14 04:34:23;;;;;;;2.73;1.07;;;;;;;;;;5090134;28;20028;-77
2022/09/14 04:36:49;;;;;;;2.07;1.40;;;;;;;;;;5087014;28;20027;-72
2022/09/14 04:39:16;;;;;;;0.73;0.60;;;;;;;;;;5087504;28;20054;-74
2022/09/14 04:41:43;;;;;;;3.00;1.17;;;;;;;;;;5087286;28;20032;-77
2022/09/14 04:44:10;;;;;;;2.73;1.03;;;;;;;;;;5088216;28;20036;-75
2022/09/14 04:46:38;;;;;;;1.20;0.70;;;;;;;;;;5092334;28;20051;-72
2022/09/14 04:49:05;;;;;;;4.30;1.07;;;;;;;;;;5092401;28;20031;-71
2022/09/14 04:51:33;;;;;;;1.47;1.00;;;;;;;;;;5092432;28;20024;-73
2022/09/14 04:54:01;;;;;;;0.63;0.57;;;;;;;;;;5092461;28;20020;-79
2022/09/14 04:56:29;;;;;;;2.00;1.03;;;;;;;;;;5090202;28;20020;-72
2022/09/14 04:59:00;;;;;;;1.57;1.00;;;;;;;;;;5090028;28;20024;-72
2022/09/14 05:01:35;;;;;;;2.00;1.17;;;;;;;;;;5090496;28;20059;-73
2022/09/14 05:04:01;;;;;;;1.67;1.05;;;;;;;;;;5090282;28;20036;-72
2022/09/14 05:06:29;;;;;;;0.97;0.67;;;;;;;;;;5092229;28;20467;-72
2022/09/14 05:08:58;;;;;;;0.63;0.50;;;;;;;;;;5096097;28;20028;-74
2022/09/14 05:11:25;;;;;;;1.10;0.93;;;;;;;;;;5096057;28;20544;-74
2022/09/14 05:13:52;;;;;;;1.10;0.80;;;;;;;;;;5095712;28;20028;-74
2022/09/14 05:16:29;;;;;;;0.70;0.60;;;;;;;;;;5096147;28;20066;-74
2022/09/14 05:18:57;;;;;;;1.77;1.33;;;;;;;;;;5093372;28;20175;-74
2022/09/14 05:21:24;;;;;;;1.13;0.80;;;;;;;;;;5090753;28;20470;-74
2022/09/14 05:23:55;;;;;;;2.10;1.20;;;;;;;;;;5089997;28;20035;-74
2022/09/14 05:26:22;;;;;;;2.27;1.33;;;;;;;;;;5090531;28;20030;-74
2022/09/14 05:28:52;;;;;;;0.70;0.70;;;;;;;;;;5092150;28;20028;-73
2022/09/14 05:31:19;;;;;;;0.90;0.70;;;;;;;;;;5095480;28;20016;-75
2022/09/14 05:33:46;;;;;;;2.50;1.00;;;;;;;;;;5095154;28;20111;-74
2022/09/14 05:36:13;;;;;;;0.60;0.50;;;;;;;;;;5095510;28;20449;-73
2022/09/14 05:38:40;;;;;;;1.80;1.20;;;;;;;;;;5095478;28;20770;-74
2022/09/14 05:41:07;;;;;;;1.50;0.97;;;;;;;;;;5093495;28;20051;-74
2022/09/14 05:43:34;;;;;;;4.13;0.63;;;;;;;;;;5089761;28;20381;-74
2022/09/14 05:46:01;;;;;;;0.80;0.60;;;;;;;;;;5090417;28;20398;-73
2022/09/14 05:48:31;;;;;;;1.53;0.87;;;;;;;;;;5090145;28;20028;-73
2022/09/14 05:51:01;;;;;;;0.60;0.57;;;;;;;;;;5090899;28;20496;-73
2022/09/14 05:53:28;;;;;;;1.83;0.97;;;;;;;;;;5094957;28;20833;-73
2022/09/14 05:56:02;;;;;;;0.60;0.40;;;;;;;;;;5095210;28;20020;-73
2022/09/14 05:58:28;;;;;;;0.87;0.60;;;;;;;;;;5095139;28;20024;-73
2022/09/14 06:00:55;;;;;;;1.40;0.83;;;;;;;;;;5095233;28;20039;-73
2022/09/14 06:03:22;;;;;;;1.33;1.00;;;;;;;;;;5092514;28;20179;-73
2022/09/14 06:05:49;;;;;;;1.50;1.17;;;;;;;;;;5089453;28;20290;-74
2022/09/14 06:08:15;;;;;;;4.10;1.30;;;;;;;;;;5089172;28;20021;-73
2022/09/14 06:10:42;;;;;;;0.60;0.60;;;;;;;;;;5089240;28;20042;-73
2022/09/14 06:13:08;;;;;;;2.73;1.33;;;;;;;;;;5090656;28;20092;-73
2022/09/14 06:15:35;;;;;;;1.00;0.80;;;;;;;;;;5094881;28;20024;-73
2022/09/14 06:18:03;;;;;;;1.67;1.23;;;;;;;;;;5094761;28;20413;-73
2022/09/14 06:20:30;;;;;;;2.90;1.27;;;;;;;;;;5094221;28;20039;-73
2022/09/14 06:22:56;;;;;;;1.67;0.97;;;;;;;;;;5094357;28;20150;-73
2022/09/14 06:25:23;;;;;;;0.63;0.50;;;;;;;;;;5093445;28;20032;-74
2022/09/14 06:27:53;;;;;;;1.60;0.87;;;;;;;;;;5089285;28;20560;-73
2022/09/14 06:30:19;;;;;;;1.53;1.00;;;;;;;;;;5089161;28;20031;-73
2022/09/14 06:32:46;;;;;;;2.33;1.60;;;;;;;;;;5089229;28;20095;-73
2022/09/14 06:35:13;;;;;;;11.07;1.00;;;;;;;;;;5089397;28;20039;-73
2022/09/14 06:37:40;;;;;;;1.50;0.97;;;;;;;;;;5094079;28;20371;-73
2022/09/14 06:40:07;;;;;;;0.33;0.30;;;;;;;;;;5094100;28;20453;-73
2022/09/14 06:42:33;;;;;;;0.90;0.73;;;;;;;;;;5094247;28;20024;-73
2022/09/14 06:45:00;;;;;;;0.93;0.77;;;;;;;;;;5094271;28;20081;-73
2022/09/14 06:47:31;;;;;;;1.20;1.10;;;;;;;;;;5093894;28;20097;-73
2022/09/14 06:49:58;;;;;;;3.07;1.63;;;;;;;;;;5088703;28;20111;-73
2022/09/14 06:52:24;;;;;;;2.67;1.27;;;;;;;;;;5089023;28;20332;-73
2022/09/14 06:54:51;;;;;;;1.90;1.27;;;;;;;;;;5088682;28;20081;-73
2022/09/14 06:57:18;;;;;;;1.33;0.87;;;;;;;;;;5088660;28;20025;-74
2022/09/14 06:59:44;;;;;;;7.87;1.00;;;;;;;;;;5093541;28;20016;-73
2022/09/14 07:02:13;;;;;;;0.50;0.50;;;;;;;;;;5094073;28;20016;-73
2022/09/14 07:04:40;;;;;;;1.60;1.27;;;;;;;;;;5093832;28;20042;-73
2022/09/14 07:07:07;;;;;;;1.47;0.70;;;;;;;;;;5093909;28;20085;-73
2022/09/14 07:09:34;;;;;;;0.73;0.73;;;;;;;;;;5092989;28;20028;-73
2022/09/14 07:12:00;;;;;;;1.10;0.83;;;;;;;;;;5088518;28;20506;-73
2022/09/14 07:14:27;;;;;;;1.20;0.93;;;;;;;;;;5088506;28;20107;-73
2022/09/14 07:16:54;;;;;;;2.33;1.17;;;;;;;;;;5088250;28;20031;-73
2022/09/14 07:19:20;;;;;;;1.20;1.03;;;;;;;;;;5088346;28;20030;-73
2022/09/14 07:21:48;;;;;;;1.43;1.13;;;;;;;;;;5091634;28;20035;-73
2022/09/14 07:24:15;;;;;;;0.83;0.73;;;;;;;;;;5093369;28;20093;-73
2022/09/14 07:26:42;;;;;;;1.87;1.30;;;;;;;;;;5092642;28;20028;-73
2022/09/14 07:29:14;;;;;;;2.47;1.47;;;;;;;;;;5093387;28;20032;-73
2022/09/14 07:31:42;;;;;;;1.37;0.87;;;;;;;;;;5093355;28;20035;-73
2022/09/14 07:34:09;;;;;;;1.10;0.77;;;;;;;;;;5088108;28;20022;-73
2022/09/14 07:36:36;;;;;;;2.93;1.03;;;;;;;;;;5087864;28;20385;-73
2022/09/14 07:39:07;;;;;;;0.97;0.73;;;;;;;;;;5087947;28;20024;-73
2022/09/14 07:41:34;;;;;;;2.23;1.67;;;;;;;;;;5087977;28;20030;-73
2022/09/14 07:44:02;;;;;;;1.20;1.10;;;;;;;;;;5092320;28;20756;-73
2022/09/14 07:46:31;;;;;;;0.87;0.80;;;;;;;;;;5093218;28;20024;-73
2022/09/14 07:49:00;;;;;;;1.10;0.90;;;;;;;;;;5092407;28;20391;-73
2022/09/14 07:51:27;;;;;;;2.33;1.63;;;;;;;;;;5092863;28;20541;-73
2022/09/14 07:53:54;;;;;;;2.80;1.40;;;;;;;;;;5092987;28;20016;-73
2022/09/14 07:56:21;;;;;;;3.03;1.13;;;;;;;;;;5087556;28;20428;-73
2022/09/14 07:58:48;;;;;;;0.93;0.87;;;;;;;;;;5087322;28;20514;-74
2022/09/14 08:01:16;;;;;;;1.33;0.93;;;;;;;;;;5087501;28;20032;-73
2022/09/14 08:03:44;;;;;;;0.57;0.50;;;;;;;;;;5087521;28;20055;-73
2022/09/14 08:06:17;;;;;;;1.33;1.03;;;;;;;;;;5091680;28;20024;-73
2022/09/14 08:08:46;;;;;;;0.60;0.60;;;;;;;;;;5092364;28;20021;-73
2022/09/14 08:11:14;;;;;;;0.90;0.70;;;;;;;;;;5092849;28;20031;-73
2022/09/14 08:13:42;;;;;;;1.10;0.83;;;;;;;;;;5092772;28;20099;-73
2022/09/14 08:16:09;;;;;;;2.60;1.10;;;;;;;;;;5092585;28;20089;-73
2022/09/14 08:18:36;;;;;;;1.70;1.20;;;;;;;;;;5087525;28;20020;-73
2022/09/14 08:21:04;;;;;;;0.97;0.57;;;;;;;;;;5087443;28;20032;-73
2022/09/14 08:23:31;;;;;;;2.60;0.77;;;;;;;;;;5087309;28;20370;-73
2022/09/14 08:26:02;;;;;;;3.90;1.13;;;;;;;;;;5086624;28;20532;-73
2022/09/14 08:28:29;;;;;;;0.93;0.73;;;;;;;;;;5091413;28;20505;-73
2022/09/14 08:30:55;;;;;;;0.53;0.53;;;;;;;;;;5092567;28;20036;-73
2022/09/14 08:33:22;;;;;;;1.43;0.60;;;;;;;;;;5092201;28;20020;-73
2022/09/14 08:35:49;;;;;;;0.30;0.30;;;;;;;;;;5092005;28;20367;-73
2022/09/14 08:38:15;;;;;;;2.17;0.73;;;;;;;;;;5092361;28;20027;-73
2022/09/14 08:40:44;;;;;;;0.63;0.43;;;;;;;;;;5087353;28;20080;-73
2022/09/14 08:43:12;;;;;;;2.00;0.73;;;;;;;;;;5087083;28;20024;-73
2022/09/14 08:45:42;;;;;;;1.03;0.60;;;;;;;;;;5086701;28;20040;-73
2022/09/14 08:48:15;;;;;;;0.80;0.73;;;;;;;;;;5086940;28;20036;-73
2022/09/14 08:50:42;;;;;;;0.73;0.50;;;;;;;;;;5090852;28;20028;-73
2022/09/14 08:53:09;;;;;;;0.40;0.30;;;;;;;;;;5091919;28;20393;-73
2022/09/14 08:55:42;;;;;;;0.67;0.30;;;;;;;;;;5091864;28;20043;-73
2022/09/14 08:58:27;;;;;;;0.87;0.80;;;;;;;;;;5091932;28;20035;-73
2022/09/14 09:00:57;;;;;;;1.00;0.38;;;;;;;;;;5092082;28;20089;-73
2022/09/14 09:03:24;;;;;;;2.53;0.97;;;;;;;;;;5086638;28;20060;-74
2022/09/14 09:05:53;;;;;;;0.43;0.40;;;;;;;;;;5086402;28;20099;-74
2022/09/14 09:08:19;;;;;;;0.27;0.27;;;;;;;;;;5087001;28;20036;-74
2022/09/14 09:10:47;;;;;;;0.87;0.57;;;;;;;;;;5086779;28;20031;-74
2022/09/14 09:13:17;;;;;;;0.50;0.50;;;;;;;;;;5091406;28;20047;-74
2022/09/14 09:15:49;;;;;;;0.20;0.20;;;;;;;;;;5092094;28;20052;-74
2022/09/14 09:18:15;;;;;;;0.37;0.37;;;;;;;;;;5091550;28;20073;-73
2022/09/14 09:20:47;;;;;;;1.83;1.10;;;;;;;;;;5092012;28;20028;-74
2022/09/14 09:23:18;;;;;;;0.60;0.40;;;;;;;;;;5092212;28;20035;-73
2022/09/14 09:25:48;;;;;;;0.67;0.60;;;;;;;;;;5086484;28;20040;-74
2022/09/14 09:28:15;;;;;;;2.17;0.70;;;;;;;;;;5086767;28;20107;-74
2022/09/14 09:30:43;;;;;;;0.73;0.67;;;;;;;;;;5086594;28;20737;-74
2022/09/14 09:33:30;;;;;;;0.67;0.50;;;;;;;;;;5086365;28;20028;-74
2022/09/14 09:35:57;;;;;;;0.70;0.60;;;;;;;;;;5091206;28;20070;-73
2022/09/14 09:38:25;;;;;;;0.80;0.70;;;;;;;;;;5091857;28;20023;-74
2022/09/14 09:40:58;;;;;;;0.20;0.20;;;;;;;;;;5091900;28;20028;-74
2022/09/14 09:43:25;;;;;;;0.30;0.30;;;;;;;;;;5092285;28;20020;-74
2022/09/14 09:45:54;;;;;;;1.03;0.63;;;;;;;;;;5094744;28;20565;-74
2022/09/14 09:48:25;;;;;;;1.30;0.70;;;;;;;;;;5090148;28;20032;-74
2022/09/14 09:50:59;;;;;;;0.87;0.53;;;;;;;;;;5089903;28;20024;-73
2022/09/14 09:53:26;;;;;;;0.97;0.70;;;;;;;;;;5090061;28;20041;-74
2022/09/14 09:55:52;;;;;;;0.93;0.67;;;;;;;;;;5089428;28;20027;-74
2022/09/14 09:58:26;;;;;;;0.80;0.50;;;;;;;;;;5095418;28;20024;-73
2022/09/14 10:01:01;;;;;;;1.37;0.63;;;;;;;;;;5095232;28;20024;-73
2022/09/14 10:03:29;;;;;;;1.40;0.68;;;;;;;;;;5095071;28;20024;-74
2022/09/14 10:06:01;;;;;;;1.23;0.80;;;;;;;;;;5094867;28;20053;-73
2022/09/14 10:08:33;;;;;;;4.57;0.80;;;;;;;;;;5093775;28;20471;-74
2022/09/14 10:11:00;;;;;;;0.43;0.43;;;;;;;;;;5089714;28;20497;-73
2022/09/14 10:13:29;;;;;;;0.67;0.47;;;;;;;;;;5089652;28;20031;-73
2022/09/14 10:16:12;;;;;;;0.77;0.73;;;;;;;;;;5089434;28;20106;-73
2022/09/14 10:18:42;;;;;;;3.10;1.17;;;;;;;;;;5090408;28;20024;-74
2022/09/14 10:21:09;;;;;;;0.83;0.60;;;;;;;;;;5094951;28;20024;-74
2022/09/14 10:23:37;;;;;;;0.73;0.67;;;;;;;;;;5094916;28;20026;-74
2022/09/14 10:26:10;;;;;;;1.80;0.73;;;;;;;;;;5094350;28;20129;-73
2022/09/14 10:28:37;;;;;;;0.50;0.50;;;;;;;;;;5094573;28;20542;-73
2022/09/14 10:31:19;;;;;;;1.13;0.60;;;;;;;;;;5092700;28;20028;-73
2022/09/14 10:33:47;;;;;;;0.50;0.40;;;;;;;;;;5089275;28;20262;-74
2022/09/14 10:36:23;;;;;;;2.03;0.70;;;;;;;;;;5088904;28;20031;-74
2022/09/14 10:38:57;;;;;;;2.63;0.63;;;;;;;;;;5089252;28;20016;-74
2022/09/14 10:41:29;;;;;;;1.10;0.73;;;;;;;;;;5090680;28;20374;-74
2022/09/14 10:44:07;;;;;;;0.50;0.43;;;;;;;;;;5094264;28;20071;-74
2022/09/14 10:46:40;;;;;;;1.20;0.70;;;;;;;;;;5094069;28;20043;-73
2022/09/14 10:49:16;;;;;;;1.37;0.80;;;;;;;;;;5094246;28;20483;-73
2022/09/14 10:51:43;;;;;;;4.00;1.00;;;;;;;;;;5093940;28;20087;-74
2022/09/14 10:54:12;;;;;;;5.93;1.00;;;;;;;;;;5090830;28;20028;-74
2022/09/14 10:56:39;;;;;;;0.90;0.70;;;;;;;;;;5088556;28;20024;-74
2022/09/14 10:59:26;;;;;;;0.43;0.43;;;;;;;;;;5088541;28;20497;-74
2022/09/14 11:01:53;;;;;;;0.87;0.63;;;;;;;;;;5088350;28;20024;-73
2022/09/14 11:04:20;;;;;;;2.57;0.80;;;;;;;;;;5092047;28;20051;-73
2022/09/14 11:06:54;;;;;;;1.70;1.00;;;;;;;;;;5093636;28;20032;-73
2022/09/14 11:09:23;;;;;;;0.97;0.73;;;;;;;;;;5094068;28;20046;-73
2022/09/14 11:11:59;;;;;;;0.90;0.70;;;;;;;;;;5093712;28;20115;-74
2022/09/14 11:14:34;;;;;;;1.40;1.30;;;;;;;;;;5093381;28;20023;-73
2022/09/14 11:17:00;;;;;;;1.83;1.17;;;;;;;;;;5088565;28;20034;-73
2022/09/14 11:19:36;;;;;;;1.27;0.90;;;;;;;;;;5088458;28;20058;-74
2022/09/14 11:22:06;;;;;;;0.80;0.70;;;;;;;;;;5088268;28;20042;-73
2022/09/14 11:24:37;;;;;;;1.33;0.90;;;;;;;;;;5088177;28;20028;-74
2022/09/14 11:27:09;;;;;;;1.50;1.17;;;;;;;;;;5092367;28;20032;-73
2022/09/14 11:29:59;;;;;;;1.03;0.90;;;;;;;;;;5093529;28;20012;-73
2022/09/14 11:32:42;;;;;;;2.23;0.83;;;;;;;;;;5083096;28;20044;-73
2022/09/14 11:35:11;;;;;;;0.80;0.67;;;;;;;;;;5093508;28;20363;-74
2022/09/14 11:37:41;;;;;;;2.00;1.00;;;;;;;;;;5092123;28;20040;-73
2022/09/14 11:40:16;;;;;;;1.53;0.80;;;;;;;;;;5087873;28;20501;-73
2022/09/14 11:42:58;;;;;;;1.23;0.90;;;;;;;;;;5088043;28;20027;-73
2022/09/14 11:45:36;;;;;;;0.77;0.73;;;;;;;;;;5087806;28;20153;-73
2022/09/14 11:48:29;;;;;;;1.03;0.80;;;;;;;;;;5088963;28;20475;-73
2022/09/14 11:51:25;;;;;;;1.37;0.83;;;;;;;;;;5089796;28;20429;-73
2022/09/14 11:53:52;;;;;;;5.72;1.00;;;;;;;;;;5075886;28;20032;-73
2022/09/14 11:56:25;;;;;;;2.73;1.07;;;;;;;;;;5092580;28;20095;-73
2022/09/14 11:58:56;;;;;;;0.67;0.57;;;;;;;;;;5092513;28;20031;-73
2022/09/14 12:01:27;;;;;;;1.00;0.70;;;;;;;;;;5088996;28;20753;-73
2022/09/14 12:04:05;;;;;;;0.67;0.60;;;;;;;;;;5087636;28;20036;-73
2022/09/14 12:06:32;;;;;;;0.10;0.10;;;;;;;;;;5086806;28;20024;-74
2022/09/14 12:09:15;;;;;;;0.50;0.50;;;;;;;;;;5087275;28;20545;-73
2022/09/14 12:11:42;;;;;;;1.73;0.97;;;;;;;;;;5092036;28;20029;-73
2022/09/14 12:14:27;;;;;;;1.83;0.90;;;;;;;;;;5092723;28;20024;-73
2022/09/14 12:17:13;;;;;;;1.10;0.95;;;;;;;;;;5092432;28;20053;-73
2022/09/14 12:19:40;;;;;;;0.73;0.70;;;;;;;;;;5092695;28;20027;-73
2022/09/14 12:22:30;;;;;;;1.40;0.83;;;;;;;;;;5091876;28;20027;-73
2022/09/14 12:25:17;;;;;;;0.73;0.50;;;;;;;;;;5076526;28;20044;-73
2022/09/14 12:27:45;;;;;;;0.50;0.50;;;;;;;;;;5086961;28;20017;-73
2022/09/14 12:30:30;;;;;;;2.20;1.00;;;;;;;;;;5087020;28;20024;-73
2022/09/14 12:32:56;;;;;;;0.63;0.50;;;;;;;;;;5089311;28;20070;-73
2022/09/14 12:35:32;;;;;;;2.00;0.97;;;;;;;;;;5092318;28;20020;-73
2022/09/14 12:37:59;;;;;;;1.33;0.90;;;;;;;;;;5092179;28;20024;-73
2022/09/14 12:40:30;;;;;;;0.60;0.57;;;;;;;;;;5092284;28;20495;-73
2022/09/14 12:42:56;;;;;;;1.27;0.87;;;;;;;;;;5092094;28;20081;-72
2022/09/14 12:45:41;;;;;;;0.40;0.40;;;;;;;;;;5089156;28;20097;-73
2022/09/14 12:48:08;;;;;;;1.02;0.70;;;;;;;;;;5087110;28;20028;-73
2022/09/14 12:50:37;;;;;;;1.43;0.70;;;;;;;;;;5086952;28;20112;-73
2022/09/14 12:53:35;;;;;;;0.53;0.47;;;;;;;;;;5087040;28;20090;-73
2022/09/14 12:56:04;;;;;;;1.00;0.80;;;;;;;;;;5067457;28;20094;-72
2022/09/14 12:58:42;;;;;;;1.30;0.97;;;;;;;;;;5092133;28;20483;-73
2022/09/14 13:01:42;;;;;;;2.23;1.30;;;;;;;;;;5092236;28;20046;-73
2022/09/14 13:04:28;;;;;;;2.10;1.40;;;;;;;;;;5048165;28;20394;-73
2022/09/14 13:06:56;;;;;;;3.20;1.17;;;;;;;;;;5089852;28;20382;-73
2022/09/14 13:09:27;;;;;;;1.53;1.33;;;;;;;;;;5086377;28;20029;-74
2022/09/14 13:11:56;;;;;;;6.60;1.60;;;;;;;;;;5086748;28;20055;-74
2022/09/14 13:14:25;;;;;;;3.07;2.17;;;;;;;;;;5086752;28;20028;-74
2022/09/14 13:16:52;;;;;;;3.17;1.97;;;;;;;;;;5087200;28;20405;-74
2022/09/14 13:19:21;;;;;;;3.77;2.30;;;;;;;;;;5093837;28;20036;-74
2022/09/14 13:21:49;;;;;;;3.43;2.17;;;;;;;;;;5095506;28;20050;-74
2022/09/14 13:24:19;;;;;;;3.63;2.03;;;;;;;;;;5095673;28;20032;-74
2022/09/14 13:26:46;;;;;;;3.47;2.80;;;;;;;;;;5095738;28;20027;-73
2022/09/14 13:29:14;;;;;;;4.43;3.23;;;;;;;;;;5094626;28;20024;-73
2022/09/14 13:31:43;;;;;;;7.73;2.57;;;;;;;;;;5089766;28;20032;-74
2022/09/14 13:34:24;;;;;;;5.63;2.57;;;;;;;;;;5090126;28;20421;-74
2022/09/14 13:36:51;;;;;;;3.00;1.83;;;;;;;;;;5090264;28;20103;-73
2022/09/14 13:39:29;;;;;;;2.23;1.53;;;;;;;;;;5090517;28;20036;-73
2022/09/14 13:41:57;;;;;;;2.97;2.20;;;;;;;;;;5095417;28;20027;-74
2022/09/14 13:44:26;;;;;;;1.13;0.83;;;;;;;;;;5095012;28;20024;-75
2022/09/14 13:46:54;;;;;;;2.10;1.30;;;;;;;;;;5095223;28;20424;-75
2022/09/14 13:49:21;;;;;;;1.87;1.23;;;;;;;;;;5094353;28;20020;-74
2022/09/14 13:51:48;;;;;;;3.27;1.13;;;;;;;;;;5093569;28;20035;-75
2022/09/14 13:54:19;;;;;;;0.77;0.60;;;;;;;;;;5089889;28;20031;-74
2022/09/14 13:56:46;;;;;;;2.77;1.33;;;;;;;;;;5089858;28;20497;-74
2022/09/14 13:59:14;;;;;;;0.70;0.50;;;;;;;;;;5089412;28;20584;-75
2022/09/14 14:01:41;;;;;;;0.87;0.70;;;;;;;;;;5090755;28;20031;-73
2022/09/14 14:04:24;;;;;;;0.47;0.47;;;;;;;;;;5094857;28;20363;-75
2022/09/14 14:07:04;;;;;;;0.30;0.30;;;;;;;;;;5094685;28;20062;-75
2022/09/14 14:09:45;;;;;;;0.73;0.57;;;;;;;;;;5095176;28;20031;-74
2022/09/14 14:12:20;;;;;;;0.97;0.70;;;;;;;;;;5095044;28;20016;-76
2022/09/14 14:15:09;;;;;;;2.13;0.85;;;;;;;;;;5091752;28;20187;-74
2022/09/14 14:17:37;;;;;;;1.57;0.70;;;;;;;;;;5089123;28;20146;-74
2022/09/14 14:20:22;;;;;;;1.70;0.63;;;;;;;;;;5089350;28;20109;-74
2022/09/14 14:23:07;;;;;;;1.42;0.82;;;;;;;;;;5088902;28;20020;-74
2022/09/14 14:25:46;;;;;;;0.37;0.37;;;;;;;;;;5093980;28;20102;-74
2022/09/14 14:28:33;;;;;;;3.47;1.17;;;;;;;;;;5093616;28;20481;-74
2022/09/14 14:31:08;;;;;;;1.27;0.80;;;;;;;;;;5094157;28;20379;-74
2022/09/14 14:33:35;;;;;;;4.83;1.77;;;;;;;;;;5093501;28;20028;-74
2022/09/14 14:36:08;;;;;;;1.13;0.77;;;;;;;;;;5093315;28;20111;-74
2022/09/14 14:38:35;;;;;;;1.60;0.63;;;;;;;;;;5088929;28;20070;-74
2022/09/14 14:41:02;;;;;;;1.37;0.87;;;;;;;;;;5088866;28;20438;-74
2022/09/14 14:43:29;;;;;;;1.40;1.00;;;;;;;;;;5088229;28;20569;-74
2022/09/14 14:45:59;;;;;;;2.03;0.97;;;;;;;;;;5088869;28;20029;-74
2022/09/14 14:48:27;;;;;;;1.23;0.90;;;;;;;;;;5093793;28;20030;-74
2022/09/14 14:50:54;;;;;;;0.70;0.60;;;;;;;;;;5094201;28;20065;-74
2022/09/14 14:53:22;;;;;;;0.90;0.80;;;;;;;;;;5093846;28;20077;-74
2022/09/14 14:55:49;;;;;;;1.07;0.90;;;;;;;;;;5094122;28;20027;-74
2022/09/14 14:58:16;;;;;;;2.43;1.07;;;;;;;;;;5092949;28;20028;-74
2022/09/14 15:00:43;;;;;;;8.80;1.20;;;;;;;;;;5088509;28;20528;-74
2022/09/14 15:03:10;;;;;;;1.17;0.73;;;;;;;;;;5088109;28;20138;-74